Letford, GA

11:00 PM EST on February 19, 2018 (GMT -0500)
Taylor Place | | Change Station
Active Advisory: Dense Fog Advisory

Elev 71 ft 32.14 °N, 81.51 °W | Updated 14 seconds ago

Clear
Clear
63.9 °F
Feels Like 63.9 °F
N
0.0
Wind Variable Wind from ESE

Today
High -- | Low -- °F
--% Chance of Precip.
Yesterday
High -- | Low -- °F
Precip. -- in
Pressure 30.35 in
Visibility 4.0 miles
Clouds Clear
Dew Point 61 °F
Humidity 93%
Rainfall 0.00 in
Snow Depth Not available.
7:04 AM 6:16 PM
Waxing Crescent, 18% visible
METAR KLHW 200356Z AUTO 10003KT 4SM BR CLR 17/17 A3034 RMK AO2 SLP277 T01690166 $
Pressure 30.35 in
Visibility 4.0 miles
Clouds Clear
Dew Point 61 °F
Humidity 93%
Rainfall 0.00 in
Snow Depth Not available.
7:04 AM 6:16 PM
Waxing Crescent, 18% visible
METAR KLHW 200356Z AUTO 10003KT 4SM BR CLR 17/17 A3034 RMK AO2 SLP277 T01690166 $

Get Your Daily Forecast Email!

Thanks for signing up!

Be on the lookout for a verification email in your inbox.

You'll start receiving severe weather alerts in your inbox..

×

10-Day Weather Forecast

Almanac

Astronomy

Feb. 19, 2018 Rise Set
Actual Time
Civil Twilight
Nautical Twilight
Astronomical Twilight
Moon
Length of Visible Light
Length of Day
Tomorrow will be .
, % of the Moon is Illuminated

Today's Extremes

State Highs State Lows

Community

WunderPhotos

Category 6

Welcome to Category 6. This is the collective home for Weather Underground's featured writeups by Dr. Jeff Masters (right), Bob Henson (left), Chris Burt, and other regular contributors.

Nearby

Air Quality

  Air Quality AQ Index Pollutant
Not available.

Snow Depth

Station Depth Elevation

Earthquake Activity

City Distance Mag. Time & Date
Minimum magnitude displayed is 2.5.

Coastal Water Temperatures

Place Temperature

Stations

Nearby Weather Stations

Station Location Temp. Windchill Dew Point Humidity Wind Precip. Elev Updated Type
                   

Watches & Warnings

Dense Fog Advisory
Issued: 8:33 PM EST Feb. 19, 2018 – National Weather Service

... Dense fog advisory in effect until 10 am EST Tuesday...

The National Weather Service in Charleston has issued a dense fog
advisory, which is in effect until 10 am EST Tuesday.

* Locations... locations of southern South Carolina and southeast
Georgia.

* Visibilities... one quarter mile or less at times, especially
during the overnight and morning hours on Tuesday.

* Impacts... low visibility will make travel difficult.

Precautionary/preparedness actions...

Be prepared for increased travel time. If driving, slow down, use
low beam headlights, and leave plenty of distance ahead of you in
case a sudden stop is needed.